createdAt,value
2018-03-31T00:01:04.750Z,10.81
2018-03-31T00:03:31.016Z,10.71
2018-03-31T00:05:57.095Z,10.72
2018-03-31T00:08:23.227Z,10.68
2018-03-31T00:10:49.352Z,10.68
2018-03-31T00:13:15.457Z,10.62
2018-03-31T00:15:42.753Z,10.49
2018-03-31T00:18:08.894Z,10.71
2018-03-31T00:20:34.987Z,10.69
2018-03-31T00:23:01.492Z,10.67
2018-03-31T00:25:27.740Z,10.80
2018-03-31T00:27:53.895Z,10.63
2018-03-31T00:30:20.010Z,10.66
2018-03-31T00:32:46.158Z,10.62
2018-03-31T00:35:12.347Z,10.63
2018-03-31T00:37:38.501Z,10.62
2018-03-31T00:40:04.788Z,10.54
2018-03-31T00:42:30.970Z,10.57
2018-03-31T00:44:57.123Z,10.48
2018-03-31T00:47:23.265Z,10.42
2018-03-31T00:49:49.474Z,10.50
2018-03-31T00:52:15.561Z,10.60
2018-03-31T00:54:42.712Z,10.66
2018-03-31T00:57:08.866Z,10.62
2018-03-31T00:59:34.974Z,10.53
2018-03-31T01:02:01.082Z,10.55
2018-03-31T01:04:40.594Z,10.54
2018-03-31T01:07:06.786Z,10.66
2018-03-31T01:09:32.886Z,10.47
2018-03-31T01:11:58.952Z,10.44
2018-03-31T01:14:27.163Z,10.36
2018-03-31T01:16:53.285Z,10.26
2018-03-31T01:19:19.531Z,10.39
2018-03-31T01:21:46.171Z,10.42
2018-03-31T01:24:12.473Z,10.55
2018-03-31T01:26:38.852Z,10.59
2018-03-31T01:29:05.075Z,10.51
2018-03-31T01:31:31.183Z,10.49
2018-03-31T01:33:57.358Z,10.56
2018-03-31T01:36:23.958Z,10.56
2018-03-31T01:38:50.348Z,10.54
2018-03-31T01:41:16.455Z,10.43
2018-03-31T01:43:44.688Z,10.45
2018-03-31T01:46:10.777Z,10.41
2018-03-31T01:48:36.910Z,10.38
2018-03-31T01:51:02.998Z,10.43
2018-03-31T01:53:29.151Z,10.32
2018-03-31T01:55:55.296Z,10.42
2018-03-31T01:58:21.406Z,10.43
2018-03-31T02:00:47.472Z,10.39
2018-03-31T02:03:13.538Z,10.44
2018-03-31T02:05:39.745Z,10.44
2018-03-31T02:08:05.866Z,10.42
2018-03-31T02:10:31.928Z,10.53
2018-03-31T02:12:58.039Z,10.47
2018-03-31T02:15:24.243Z,10.57
2018-03-31T02:17:50.343Z,10.58
2018-03-31T02:20:16.471Z,10.54
2018-03-31T02:22:42.553Z,10.56
2018-03-31T02:25:08.776Z,10.60
2018-03-31T02:27:34.911Z,10.58
2018-03-31T02:30:01.069Z,10.55
2018-03-31T02:32:27.170Z,10.57
2018-03-31T02:35:08.705Z,10.71
2018-03-31T02:37:34.824Z,10.62
2018-03-31T02:40:00.901Z,10.65
2018-03-31T02:42:27.011Z,10.79
2018-03-31T02:44:54.253Z,10.70
2018-03-31T02:47:20.341Z,10.73
2018-03-31T02:49:46.462Z,10.74
2018-03-31T02:52:12.547Z,10.79
2018-03-31T02:54:42.510Z,10.80
2018-03-31T02:57:08.683Z,10.78
2018-03-31T02:59:34.849Z,10.79
2018-03-31T03:02:00.953Z,10.82
2018-03-31T03:04:27.116Z,10.78
2018-03-31T03:06:53.182Z,10.84
2018-03-31T03:09:19.320Z,10.79
2018-03-31T03:11:45.482Z,10.73
2018-03-31T03:14:15.502Z,10.75
2018-03-31T03:16:41.581Z,10.74
2018-03-31T03:19:07.728Z,10.69
2018-03-31T03:21:33.855Z,10.62
2018-03-31T03:24:03.285Z,10.61
2018-03-31T03:26:29.396Z,10.57
2018-03-31T03:28:55.535Z,10.51
2018-03-31T03:31:21.638Z,10.54
2018-03-31T03:33:47.878Z,10.51
2018-03-31T03:36:13.953Z,10.52
2018-03-31T03:38:40.007Z,10.46
2018-03-31T03:41:06.138Z,10.47
2018-03-31T03:43:32.272Z,10.50
2018-03-31T03:45:58.429Z,10.47
2018-03-31T03:48:24.586Z,10.62
2018-03-31T03:50:50.693Z,10.60
2018-03-31T03:53:16.817Z,10.57
2018-03-31T03:55:42.976Z,10.53
2018-03-31T03:58:09.102Z,10.52
2018-03-31T04:00:35.229Z,10.58
2018-03-31T04:03:01.728Z,10.57
2018-03-31T04:05:27.833Z,10.64
2018-03-31T04:07:53.962Z,10.54
2018-03-31T04:10:20.052Z,10.60
2018-03-31T04:12:46.146Z,10.52
2018-03-31T04:15:15.755Z,10.55
2018-03-31T04:17:41.836Z,10.51
2018-03-31T04:20:07.960Z,10.51
2018-03-31T04:22:34.064Z,10.61
2018-03-31T04:25:04.183Z,10.62
2018-03-31T04:27:30.279Z,10.58
2018-03-31T04:29:56.390Z,10.62
2018-03-31T04:32:22.541Z,10.66
2018-03-31T04:34:55.563Z,10.71
2018-03-31T04:37:21.797Z,10.71
2018-03-31T04:39:47.922Z,10.79
2018-03-31T04:42:14.005Z,10.78
2018-03-31T04:44:40.163Z,10.80
2018-03-31T04:47:06.318Z,10.88
2018-03-31T04:49:32.472Z,11.07
2018-03-31T04:51:58.611Z,11.03
2018-03-31T04:54:24.717Z,11.05
2018-03-31T04:56:50.855Z,11.11
2018-03-31T04:59:16.987Z,11.12
2018-03-31T05:01:43.442Z,11.03
2018-03-31T05:04:09.675Z,11.12
2018-03-31T05:06:35.857Z,11.13
2018-03-31T05:09:02.161Z,11.16
2018-03-31T05:11:28.351Z,11.14
2018-03-31T05:13:54.782Z,11.14
2018-03-31T05:16:21.996Z,11.18
2018-03-31T05:18:48.316Z,11.15
2018-03-31T05:21:14.949Z,11.01
2018-03-31T05:23:41.751Z,10.98
2018-03-31T05:26:09.788Z,11.04
2018-03-31T05:28:36.132Z,11.05
2018-03-31T05:31:02.246Z,11.06
2018-03-31T05:33:28.430Z,11.12
2018-03-31T05:35:54.886Z,11.05
2018-03-31T05:38:22.280Z,11.06
2018-03-31T05:40:48.453Z,11.18
2018-03-31T05:43:14.825Z,11.20
2018-03-31T05:45:41.028Z,11.31
2018-03-31T05:48:08.196Z,11.31
2018-03-31T05:50:36.160Z,11.34
2018-03-31T05:53:03.344Z,11.40
2018-03-31T05:55:30.111Z,11.54
2018-03-31T05:57:56.524Z,11.61
2018-03-31T06:00:22.764Z,11.65
2018-03-31T06:02:50.058Z,11.88
2018-03-31T06:05:20.486Z,12.15
2018-03-31T06:07:47.100Z,12.26
2018-03-31T06:10:13.457Z,12.33
2018-03-31T06:12:39.802Z,12.32
2018-03-31T06:15:12.466Z,12.20
2018-03-31T06:17:38.718Z,12.31
2018-03-31T06:20:05.237Z,12.44
2018-03-31T06:22:31.485Z,12.47
2018-03-31T06:24:57.679Z,12.56
2018-03-31T06:27:23.873Z,12.66
2018-03-31T06:29:50.086Z,12.89
2018-03-31T06:32:16.290Z,12.89
2018-03-31T06:34:42.548Z,13.02
2018-03-31T06:37:08.761Z,13.07
2018-03-31T06:39:35.199Z,13.11
2018-03-31T06:42:01.387Z,13.07
2018-03-31T06:44:30.835Z,13.09
2018-03-31T06:46:57.032Z,13.36
2018-03-31T06:49:23.164Z,14.38
2018-03-31T06:51:49.279Z,15.31
2018-03-31T06:54:15.503Z,15.53
2018-03-31T06:56:41.671Z,15.27
2018-03-31T06:59:07.817Z,15.41
2018-03-31T07:01:34.048Z,15.79
2018-03-31T07:04:00.205Z,15.78
2018-03-31T07:06:26.336Z,16.27
2018-03-31T07:08:53.385Z,15.37
2018-03-31T07:11:19.541Z,15.74
2018-03-31T07:13:45.645Z,16.05
2018-03-31T07:16:13.825Z,16.08
2018-03-31T07:18:39.931Z,16.13
2018-03-31T07:21:06.336Z,15.45
2018-03-31T07:23:32.632Z,15.48
2018-03-31T07:25:58.805Z,15.48
2018-03-31T07:28:24.940Z,15.40
2018-03-31T07:30:51.158Z,15.79
2018-03-31T07:33:17.271Z,15.70
2018-03-31T07:35:44.503Z,15.86
2018-03-31T07:38:10.708Z,15.95
2018-03-31T07:40:36.808Z,16.07
2018-03-31T07:43:03.124Z,15.96
2018-03-31T07:45:29.473Z,15.85
2018-03-31T07:47:55.655Z,16.17
2018-03-31T07:50:21.779Z,16.00
2018-03-31T07:52:48.069Z,16.04
2018-03-31T07:55:14.221Z,16.27
2018-03-31T07:57:40.354Z,16.54
2018-03-31T08:00:06.545Z,16.69
2018-03-31T08:02:32.667Z,16.84
2018-03-31T08:04:58.989Z,16.85
2018-03-31T08:07:25.139Z,16.99
2018-03-31T08:09:51.445Z,16.83
2018-03-31T08:12:17.546Z,17.18
2018-03-31T08:14:44.999Z,16.79
2018-03-31T08:17:11.758Z,16.63
2018-03-31T08:19:37.923Z,16.79
2018-03-31T08:22:04.115Z,16.79
2018-03-31T08:24:31.334Z,16.52
2018-03-31T08:26:57.475Z,16.75
2018-03-31T08:29:23.772Z,16.52
2018-03-31T08:31:49.955Z,16.55
2018-03-31T08:34:16.287Z,16.48
2018-03-31T08:36:42.473Z,16.61
2018-03-31T08:39:08.636Z,16.29
2018-03-31T08:41:35.118Z,16.26
2018-03-31T08:44:01.417Z,16.16
2018-03-31T08:46:27.681Z,16.32
2018-03-31T08:48:53.846Z,16.38
2018-03-31T08:51:20.037Z,16.66
2018-03-31T08:53:46.131Z,16.55
2018-03-31T08:56:12.337Z,16.52
2018-03-31T08:58:38.744Z,16.82
2018-03-31T09:01:04.963Z,16.96
2018-03-31T09:03:31.056Z,17.15
2018-03-31T09:05:57.331Z,17.32
2018-03-31T09:08:23.486Z,18.30
2018-03-31T09:10:49.637Z,18.86
2018-03-31T09:13:15.837Z,19.76
2018-03-31T09:15:43.091Z,20.31
2018-03-31T09:18:09.209Z,20.39
2018-03-31T09:20:35.454Z,21.21
2018-03-31T09:23:01.601Z,21.65
2018-03-31T09:25:28.150Z,21.39
2018-03-31T09:27:54.634Z,22.06
2018-03-31T09:30:20.773Z,21.12
2018-03-31T09:32:46.939Z,21.00
2018-03-31T09:35:14.701Z,20.01
2018-03-31T09:37:42.619Z,19.68
2018-03-31T09:40:09.721Z,19.15
2018-03-31T09:42:36.128Z,18.71
2018-03-31T09:45:02.315Z,18.90
2018-03-31T09:47:28.521Z,18.60
2018-03-31T09:49:54.855Z,18.45
2018-03-31T09:52:21.017Z,18.68
2018-03-31T09:54:48.937Z,18.78
2018-03-31T09:57:15.115Z,19.10
2018-03-31T09:59:41.241Z,18.89
2018-03-31T10:02:07.395Z,18.86
2018-03-31T10:04:38.337Z,19.10
2018-03-31T10:07:05.563Z,19.38
2018-03-31T10:09:31.972Z,19.61
2018-03-31T10:11:58.242Z,20.37
2018-03-31T10:14:24.496Z,20.89
2018-03-31T10:16:50.758Z,21.14
2018-03-31T10:19:17.065Z,21.24
2018-03-31T10:21:43.478Z,21.02
2018-03-31T10:24:09.867Z,20.82
2018-03-31T10:26:36.238Z,21.00
2018-03-31T10:29:02.668Z,20.58
2018-03-31T10:31:28.898Z,21.42
2018-03-31T10:33:55.151Z,21.36
2018-03-31T10:36:21.538Z,21.18
2018-03-31T10:38:48.437Z,20.98
2018-03-31T10:41:14.763Z,21.43
2018-03-31T10:43:41.055Z,21.19
2018-03-31T10:46:07.287Z,21.40
2018-03-31T10:48:34.564Z,22.03
2018-03-31T10:51:00.899Z,22.06
2018-03-31T10:53:27.152Z,21.47
2018-03-31T10:55:53.444Z,21.38
2018-03-31T10:58:19.744Z,21.69
2018-03-31T11:00:45.940Z,21.40
2018-03-31T11:03:12.322Z,21.16
2018-03-31T11:05:38.608Z,22.04
2018-03-31T11:08:04.804Z,22.21
2018-03-31T11:10:31.136Z,21.82
2018-03-31T11:12:57.452Z,21.64
2018-03-31T11:15:23.702Z,22.39
2018-03-31T11:17:49.934Z,22.06
2018-03-31T11:20:16.086Z,22.23
2018-03-31T11:22:42.688Z,21.86
2018-03-31T11:25:08.998Z,21.78
2018-03-31T11:27:35.126Z,21.92
2018-03-31T11:30:01.380Z,21.41
2018-03-31T11:32:28.458Z,21.68
2018-03-31T11:34:58.677Z,21.37
2018-03-31T11:37:25.212Z,21.25
2018-03-31T11:39:51.379Z,21.22
2018-03-31T11:42:17.478Z,21.34
2018-03-31T11:44:44.415Z,21.33
2018-03-31T11:47:10.932Z,21.56
2018-03-31T11:49:37.472Z,21.89
2018-03-31T11:52:03.783Z,22.28
2018-03-31T11:54:30.817Z,22.28
2018-03-31T11:56:57.052Z,21.71
2018-03-31T11:59:23.536Z,21.30
2018-03-31T12:01:49.929Z,21.05
2018-03-31T12:12:19.217Z,21.48
2018-03-31T12:14:45.828Z,20.90
2018-03-31T12:17:12.631Z,20.75
2018-03-31T12:19:39.400Z,20.89
2018-03-31T12:22:06.612Z,21.17
2018-03-31T12:24:33.718Z,21.27
2018-03-31T12:27:00.417Z,21.64
2018-03-31T12:29:28.230Z,21.83
2018-03-31T12:31:55.085Z,21.45
2018-03-31T12:34:21.541Z,21.40
2018-03-31T12:36:48.027Z,21.60
2018-03-31T12:39:14.775Z,21.73
2018-03-31T12:41:41.292Z,21.87
2018-03-31T12:44:08.386Z,21.62
2018-03-31T12:46:35.781Z,21.37
2018-03-31T12:49:02.664Z,21.66
2018-03-31T12:51:30.746Z,21.49
2018-03-31T12:53:57.294Z,21.48
2018-03-31T12:56:23.955Z,20.81
2018-03-31T12:58:50.315Z,20.75
2018-03-31T13:01:16.800Z,20.61
2018-03-31T13:03:43.499Z,20.57
2018-03-31T13:06:09.914Z,20.40
2018-03-31T13:08:36.258Z,20.38
2018-03-31T13:11:02.769Z,20.50
2018-03-31T13:13:29.315Z,20.89
2018-03-31T13:15:56.337Z,20.90
2018-03-31T13:18:22.972Z,20.77
2018-03-31T13:20:49.429Z,20.66
2018-03-31T13:23:16.047Z,20.31
2018-03-31T13:25:42.455Z,20.65
2018-03-31T13:28:09.204Z,20.56
2018-03-31T13:30:35.938Z,20.13
2018-03-31T13:33:02.207Z,20.24
2018-03-31T13:35:29.581Z,20.06
2018-03-31T13:37:55.969Z,20.33
2018-03-31T13:40:22.654Z,20.53
2018-03-31T13:42:49.064Z,20.37
2018-03-31T13:45:15.484Z,20.09
2018-03-31T13:47:42.148Z,20.16
2018-03-31T13:50:08.794Z,20.15
2018-03-31T13:52:35.870Z,20.28
2018-03-31T13:55:02.392Z,20.00
2018-03-31T13:57:28.583Z,19.94
2018-03-31T13:59:54.695Z,19.95
2018-03-31T14:02:20.882Z,19.94
2018-03-31T14:04:47.148Z,19.84
2018-03-31T14:07:13.397Z,19.39
2018-03-31T14:09:39.613Z,19.25
2018-03-31T14:12:05.787Z,19.20
2018-03-31T14:14:31.923Z,18.90
2018-03-31T14:16:58.145Z,18.76
2018-03-31T14:19:24.465Z,18.76
2018-03-31T14:21:50.598Z,18.71
2018-03-31T14:24:16.934Z,18.96
2018-03-31T14:26:43.136Z,18.75
2018-03-31T14:29:09.348Z,18.80
2018-03-31T14:31:35.549Z,19.10
2018-03-31T14:34:01.868Z,18.98
2018-03-31T14:36:28.167Z,18.67
2018-03-31T14:38:54.471Z,18.94
2018-03-31T14:41:21.291Z,18.79
2018-03-31T14:43:48.148Z,18.41
2018-03-31T14:46:14.445Z,18.00
2018-03-31T14:48:40.599Z,18.08
2018-03-31T14:51:06.769Z,18.08
2018-03-31T14:53:33.147Z,18.06
2018-03-31T14:55:59.439Z,17.82
2018-03-31T14:58:25.752Z,17.67
2018-03-31T15:00:52.124Z,17.46
2018-03-31T15:03:19.722Z,17.56
2018-03-31T15:05:47.190Z,17.47
2018-03-31T15:08:13.859Z,17.50
2018-03-31T15:10:40.105Z,17.26
2018-03-31T15:13:07.030Z,17.27
2018-03-31T15:15:35.064Z,17.20
2018-03-31T15:18:01.489Z,17.27
2018-03-31T15:20:27.731Z,17.25
2018-03-31T15:22:54.030Z,17.14
2018-03-31T15:25:20.342Z,17.00
2018-03-31T15:27:46.721Z,17.03
2018-03-31T15:30:13.265Z,17.00
2018-03-31T15:32:39.903Z,16.94
2018-03-31T15:35:07.323Z,16.98
2018-03-31T15:37:34.206Z,16.84
2018-03-31T15:40:01.649Z,16.84
2018-03-31T15:42:30.233Z,16.83
2018-03-31T15:44:57.348Z,16.76
2018-03-31T15:47:24.299Z,16.63
2018-03-31T15:49:51.233Z,16.54
2018-03-31T15:52:18.188Z,16.40
2018-03-31T15:54:44.422Z,16.28
2018-03-31T15:57:10.927Z,16.12
2018-03-31T15:59:37.120Z,16.07
2018-03-31T16:02:04.153Z,16.02
2018-03-31T16:04:30.483Z,15.96
2018-03-31T16:06:56.770Z,15.85
2018-03-31T16:09:25.538Z,15.61
2018-03-31T16:11:52.028Z,15.53
2018-03-31T16:14:25.698Z,15.46
2018-03-31T16:16:52.787Z,15.55
2018-03-31T16:19:19.647Z,15.52
2018-03-31T16:21:46.474Z,15.42
2018-03-31T16:24:14.695Z,15.33
2018-03-31T16:26:41.985Z,15.24
2018-03-31T16:29:10.969Z,15.26
2018-03-31T16:31:37.954Z,15.04
2018-03-31T16:34:06.482Z,15.00
2018-03-31T16:36:33.107Z,14.95
2018-03-31T16:38:59.614Z,14.94
2018-03-31T16:41:26.061Z,14.87
2018-03-31T16:43:52.479Z,14.82
2018-03-31T16:46:18.967Z,14.82
2018-03-31T16:48:45.448Z,14.71
2018-03-31T16:51:12.232Z,14.59
2018-03-31T16:53:38.778Z,14.63
2018-03-31T16:56:05.197Z,14.63
2018-03-31T16:58:31.431Z,14.65
2018-03-31T17:00:57.678Z,14.62
2018-03-31T17:03:24.543Z,14.61
2018-03-31T17:05:50.871Z,14.58
2018-03-31T17:08:17.048Z,14.69
2018-03-31T17:10:43.415Z,14.49
2018-03-31T17:13:09.974Z,14.33
2018-03-31T17:15:36.387Z,14.41
2018-03-31T17:18:02.666Z,14.48
2018-03-31T17:20:29.246Z,14.52
2018-03-31T17:22:55.653Z,14.41
2018-03-31T17:25:22.264Z,14.37
2018-03-31T17:27:48.630Z,14.36
2018-03-31T17:30:15.763Z,14.59
2018-03-31T17:32:42.448Z,14.56
2018-03-31T17:35:08.770Z,14.51
2018-03-31T17:37:35.436Z,14.35
2018-03-31T17:40:01.770Z,14.37
2018-03-31T17:42:28.340Z,14.29
2018-03-31T17:44:54.769Z,14.43
2018-03-31T17:47:23.838Z,14.29
2018-03-31T17:49:54.890Z,14.24
2018-03-31T17:52:21.818Z,14.34
2018-03-31T17:54:48.297Z,14.22
2018-03-31T17:57:14.663Z,14.20
2018-03-31T17:59:41.030Z,14.23
2018-03-31T18:02:07.599Z,14.15
2018-03-31T18:04:34.160Z,14.11
2018-03-31T18:07:01.220Z,14.13
2018-03-31T18:09:27.594Z,14.21
2018-03-31T18:11:54.048Z,14.35
2018-03-31T18:14:20.618Z,14.16
2018-03-31T18:16:46.947Z,14.13
2018-03-31T18:19:13.750Z,14.28
2018-03-31T18:21:40.491Z,14.24
2018-03-31T18:24:06.981Z,14.24
2018-03-31T18:26:34.378Z,14.25
2018-03-31T18:29:01.225Z,14.19
2018-03-31T18:31:28.811Z,14.12
2018-03-31T18:33:55.863Z,14.11
2018-03-31T18:36:23.141Z,14.27
2018-03-31T18:38:50.117Z,14.09
2018-03-31T18:41:16.640Z,14.02
2018-03-31T18:43:44.199Z,14.00
2018-03-31T18:46:11.583Z,13.98
2018-03-31T18:48:38.383Z,13.79
2018-03-31T18:51:05.894Z,13.78
2018-03-31T18:53:34.439Z,14.12
2018-03-31T18:56:01.641Z,13.99
2018-03-31T18:58:28.661Z,14.07
2018-03-31T19:00:55.235Z,13.90
2018-03-31T19:03:21.806Z,13.85
2018-03-31T19:05:48.970Z,14.15
2018-03-31T19:08:15.517Z,14.26
2018-03-31T19:10:42.929Z,13.92
2018-03-31T19:13:09.578Z,13.94
2018-03-31T19:15:36.015Z,14.12
2018-03-31T19:18:02.559Z,14.06
2018-03-31T19:20:28.941Z,14.12
2018-03-31T19:22:56.169Z,14.27
2018-03-31T19:25:29.228Z,14.18
2018-03-31T19:27:56.229Z,14.09
2018-03-31T19:30:23.065Z,14.17
2018-03-31T19:32:49.762Z,14.00
2018-03-31T19:35:16.802Z,13.82
2018-03-31T19:37:43.806Z,13.97
2018-03-31T19:40:10.214Z,14.13
2018-03-31T19:42:36.605Z,14.21
2018-03-31T19:45:02.908Z,14.14
2018-03-31T19:47:29.664Z,13.78
2018-03-31T19:49:57.393Z,13.72
2018-03-31T19:52:24.427Z,13.98
2018-03-31T19:54:51.448Z,13.84
2018-03-31T19:57:20.172Z,13.82
2018-03-31T19:59:48.639Z,13.88
2018-03-31T20:02:15.997Z,13.69
2018-03-31T20:04:42.389Z,13.74
2018-03-31T20:07:09.010Z,13.59
2018-03-31T20:09:36.172Z,13.70
2018-03-31T20:12:03.361Z,13.66
2018-03-31T20:14:31.331Z,13.52
2018-03-31T20:16:58.431Z,13.63
2018-03-31T20:19:24.991Z,13.62
2018-03-31T20:21:52.305Z,13.55
2018-03-31T20:24:18.766Z,13.44
2018-03-31T20:26:45.671Z,13.42
2018-03-31T20:29:12.325Z,13.64
2018-03-31T20:31:39.252Z,13.90
2018-03-31T20:34:05.776Z,13.80
2018-03-31T20:36:32.467Z,13.72
2018-03-31T20:38:58.984Z,13.43
2018-03-31T20:41:25.526Z,13.29
2018-03-31T20:43:52.232Z,13.40
2018-03-31T20:46:19.624Z,13.33
2018-03-31T20:48:46.205Z,13.58
2018-03-31T20:51:12.912Z,13.53
2018-03-31T20:53:39.534Z,13.51
2018-03-31T20:56:07.392Z,13.60
2018-03-31T20:58:33.896Z,13.55
2018-03-31T21:01:00.526Z,13.58
2018-03-31T21:03:26.990Z,13.51
2018-03-31T21:05:53.760Z,13.51
2018-03-31T21:08:20.060Z,13.74
2018-03-31T21:10:46.415Z,13.84
2018-03-31T21:13:12.984Z,13.86
2018-03-31T21:15:39.468Z,13.63
2018-03-31T21:18:05.914Z,13.36
2018-03-31T21:20:32.226Z,13.46
2018-03-31T21:22:58.696Z,13.46
2018-03-31T21:25:25.358Z,13.22
2018-03-31T21:27:52.163Z,13.27
2018-03-31T21:30:18.393Z,13.22
2018-03-31T21:32:44.834Z,13.49
2018-03-31T21:35:11.186Z,13.20
2018-03-31T21:37:37.400Z,13.28
2018-03-31T21:40:03.774Z,13.48
2018-03-31T21:42:30.572Z,13.30
2018-03-31T21:44:56.942Z,13.24
2018-03-31T21:47:23.295Z,13.09
2018-03-31T21:49:49.585Z,13.29
2018-03-31T21:52:15.773Z,13.14
2018-03-31T21:54:42.119Z,13.56
2018-03-31T21:57:08.503Z,13.28
2018-03-31T21:59:35.872Z,13.43
2018-03-31T22:02:02.095Z,13.37
2018-03-31T22:04:28.339Z,13.28
2018-03-31T22:06:54.765Z,13.54
2018-03-31T22:09:20.949Z,13.57
2018-03-31T22:11:47.193Z,13.47
2018-03-31T22:14:19.458Z,13.44
2018-03-31T22:16:45.757Z,13.66
2018-03-31T22:19:11.827Z,13.66
2018-03-31T22:21:38.008Z,13.62
2018-03-31T22:24:04.203Z,13.56
2018-03-31T22:26:30.403Z,13.70
2018-03-31T22:28:56.600Z,13.50
2018-03-31T22:31:22.796Z,13.55
2018-03-31T22:33:48.890Z,13.46
2018-03-31T22:36:15.125Z,13.50
2018-03-31T22:38:41.369Z,13.52
2018-03-31T22:41:07.547Z,13.51
2018-03-31T22:43:33.639Z,13.45
2018-03-31T22:45:59.942Z,13.48
2018-03-31T22:48:26.080Z,13.51
2018-03-31T22:50:52.267Z,13.29
2018-03-31T22:53:18.441Z,13.33
2018-03-31T22:55:44.663Z,13.28
2018-03-31T22:58:10.794Z,13.36
2018-03-31T23:00:36.947Z,13.29
2018-03-31T23:03:03.095Z,13.35
2018-03-31T23:05:29.482Z,13.24
2018-03-31T23:07:55.758Z,13.13
2018-03-31T23:10:21.834Z,12.95
2018-03-31T23:12:47.987Z,12.81
2018-03-31T23:15:14.199Z,12.92
2018-03-31T23:17:40.400Z,13.02
2018-03-31T23:20:07.026Z,12.93
2018-03-31T23:22:33.294Z,13.19
2018-03-31T23:24:59.431Z,12.97
2018-03-31T23:27:25.558Z,12.91
2018-03-31T23:29:51.629Z,12.83
2018-03-31T23:32:17.808Z,12.63
2018-03-31T23:34:43.918Z,12.71
2018-03-31T23:37:10.436Z,12.81
2018-03-31T23:39:36.716Z,12.66
2018-03-31T23:42:03.048Z,12.80
2018-03-31T23:44:29.269Z,12.55
2018-03-31T23:46:55.554Z,12.26
2018-03-31T23:49:21.784Z,12.16
2018-03-31T23:51:47.889Z,11.82
2018-03-31T23:54:14.061Z,11.81
2018-03-31T23:56:40.186Z,12.09
2018-03-31T23:59:06.309Z,12.17
